Time;durP1;ratioP1;P1;durP2;ratioP2;P2;SDS_P1;SDS_P2;PMS_P1;PMS_P2;Temp;Humidity;BMP_temperature;BMP_pressure;BME280_temperature;BME280_humidity;BME280_pressure;Samples;Min_cycle;Max_cycle;Signal;HPM_P1;HPM_P2
2023/03/16 00:00:19;;;;;;;3.92;2.78;;;30.60;99.80;;;;;;5030696;28;20126;-62
2023/03/16 00:02:46;;;;;;;6.53;2.83;;;30.80;98.30;;;;;;5032952;28;20086;-61
2023/03/16 00:05:15;;;;;;;11.00;3.50;;;31.00;97.70;;;;;;5038280;28;20041;-60
2023/03/16 00:07:43;;;;;;;3.88;2.83;;;31.10;96.90;;;;;;5027143;28;20041;-60
2023/03/16 00:10:12;;;;;;;4.40;3.17;;;31.40;97.90;;;;;;5031067;28;20040;-60
2023/03/16 00:12:42;;;;;;;5.45;3.00;;;31.60;96.20;;;;;;5047190;28;20526;-59
2023/03/16 00:15:10;;;;;;;6.13;2.72;;;31.70;94.20;;;;;;5032417;28;20017;-60
2023/03/16 00:17:37;;;;;;;5.07;2.53;;;31.70;93.30;;;;;;5029095;28;20065;-60
2023/03/16 00:20:08;;;;;;;6.75;3.33;;;31.90;93.40;;;;;;5044602;28;20029;-59
2023/03/16 00:22:36;;;;;;;9.07;3.20;;;31.90;91.60;;;;;;5027422;28;20106;-59
2023/03/16 00:25:04;;;;;;;5.43;3.08;;;32.00;92.50;;;;;;5029630;28;20037;-60
2023/03/16 00:27:31;;;;;;;4.60;2.63;;;32.20;92.10;;;;;;5030293;28;20037;-60
2023/03/16 00:30:01;;;;;;;4.70;3.03;;;32.30;91.00;;;;;;5027757;28;20469;-60
2023/03/16 00:32:34;;;;;;;5.20;2.95;;;32.60;91.50;;;;;;5036223;28;20098;-60
2023/03/16 00:35:03;;;;;;;5.65;2.53;;;32.90;90.30;;;;;;5029901;28;20075;-60
2023/03/16 00:37:35;;;;;;;5.45;2.60;;;33.00;85.60;;;;;;5028526;28;20029;-61
2023/03/16 00:40:06;;;;;;;5.60;2.72;;;33.10;87.20;;;;;;5028414;28;20017;-61
2023/03/16 00:42:34;;;;;;;4.70;2.95;;;33.30;81.80;;;;;;5026690;28;20387;-61
2023/03/16 00:45:02;;;;;;;6.65;2.83;;;33.30;83.20;;;;;;5043688;28;20044;-61
2023/03/16 00:47:33;;;;;;;3.53;2.35;;;33.50;80.30;;;;;;5026907;28;20032;-60
2023/03/16 00:50:02;;;;;;;5.15;2.30;;;33.50;80.00;;;;;;5032325;28;20021;-62
2023/03/16 00:52:30;;;;;;;5.15;2.30;;;33.60;77.60;;;;;;5027706;28;20513;-63
2023/03/16 00:54:57;;;;;;;7.30;2.90;;;33.70;73.00;;;;;;5024994;28;20037;-62
2023/03/16 00:57:26;;;;;;;3.50;2.22;;;33.70;79.00;;;;;;5034590;28;20112;-62
2023/03/16 00:59:54;;;;;;;4.25;2.60;;;33.70;75.60;;;;;;5018740;28;20041;-65
2023/03/16 01:02:24;;;;;;;8.07;2.40;;;33.80;74.80;;;;;;5034201;28;20029;-66
2023/03/16 01:04:53;;;;;;;3.88;2.20;;;33.80;72.10;;;;;;5029620;28;20045;-65
2023/03/16 01:07:20;;;;;;;5.20;2.42;;;33.90;72.80;;;;;;5028412;28;20040;-64
2023/03/16 01:09:48;;;;;;;4.68;2.88;;;34.20;75.10;;;;;;5023059;28;20059;-63
2023/03/16 01:12:18;;;;;;;8.02;2.35;;;34.30;75.30;;;;;;5026997;28;20124;-64
2023/03/16 01:14:46;;;;;;;4.07;2.40;;;34.40;70.10;;;;;;5030327;28;20028;-65
2023/03/16 01:17:14;;;;;;;5.72;2.20;;;34.50;69.90;;;;;;5025793;28;21517;-64
2023/03/16 01:19:42;;;;;;;3.65;2.38;;;34.50;71.40;;;;;;5030844;28;20537;-64
2023/03/16 01:22:11;;;;;;;5.00;2.30;;;34.60;70.60;;;;;;5025756;28;20022;-64
2023/03/16 01:24:39;;;;;;;5.57;2.20;;;34.70;70.10;;;;;;5024930;28;20568;-63
2023/03/16 01:27:08;;;;;;;6.20;1.98;;;34.80;68.60;;;;;;5030626;28;20021;-66
2023/03/16 01:29:36;;;;;;;3.28;2.00;;;35.00;66.30;;;;;;5031874;28;20418;-65
2023/03/16 01:32:04;;;;;;;4.05;2.20;;;35.00;64.70;;;;;;5026784;28;20038;-66
2023/03/16 01:34:33;;;;;;;4.72;2.10;;;35.10;64.80;;;;;;5018110;28;20421;-66
2023/03/16 01:37:02;;;;;;;3.88;1.88;;;35.10;64.10;;;;;;5027878;28;20079;-65
2023/03/16 01:39:30;;;;;;;3.90;2.05;;;35.50;62.30;;;;;;5027185;28;20030;-65
2023/03/16 01:41:58;;;;;;;2.65;1.67;;;35.50;60.40;;;;;;5025666;28;20026;-65
2023/03/16 01:44:29;;;;;;;2.58;1.70;;;35.60;59.60;;;;;;5026877;28;20037;-65
2023/03/16 01:46:57;;;;;;;1.83;1.60;;;35.60;59.40;;;;;;5027081;28;20043;-64
2023/03/16 01:49:31;;;;;;;3.60;2.10;;;35.60;57.40;;;;;;5039365;28;20049;-65
2023/03/16 01:52:01;;;;;;;3.63;1.67;;;35.70;59.00;;;;;;5026815;28;20399;-66
2023/03/16 01:54:37;;;;;;;5.68;2.00;;;35.60;58.70;;;;;;5029724;28;20033;-62
2023/03/16 01:57:07;;;;;;;5.20;1.40;;;35.80;60.00;;;;;;5023581;28;20028;-62
2023/03/16 01:59:46;;;;;;;3.85;1.67;;;35.90;56.40;;;;;;5025221;28;20037;-63
2023/03/16 02:02:18;;;;;;;2.70;1.45;;;35.90;57.00;;;;;;5025259;28;20025;-63
2023/03/16 02:05:01;;;;;;;2.92;1.67;;;36.10;56.80;;;;;;5037479;28;20033;-62
2023/03/16 02:07:31;;;;;;;4.72;1.48;;;36.00;56.60;;;;;;5036237;28;20065;-62
2023/03/16 02:10:01;;;;;;;4.68;1.80;;;36.20;56.20;;;;;;5025157;28;20036;-63
2023/03/16 02:12:30;;;;;;;2.95;1.73;;;36.20;54.50;;;;;;5027507;28;20091;-62
2023/03/16 02:14:57;;;;;;;3.05;1.70;;;36.20;54.90;;;;;;5033127;28;20028;-63
2023/03/16 02:17:28;;;;;;;2.63;1.50;;;36.10;54.40;;;;;;5034065;28;20100;-63
2023/03/16 02:20:26;;;;;;;4.80;1.70;;;36.20;54.10;;;;;;5029310;28;20041;-63
2023/03/16 02:22:54;;;;;;;6.18;1.50;;;36.30;54.60;;;;;;5028185;28;20029;-64
2023/03/16 02:26:00;;;;;;;4.57;1.33;;;36.30;54.60;;;;;;5024408;28;20133;-64
2023/03/16 02:28:53;;;;;;;2.58;1.13;;;36.50;53.80;;;;;;5017440;28;20080;-63
2023/03/16 02:31:21;;;;;;;4.10;1.30;;;36.70;53.20;;;;;;5020390;28;20398;-63
2023/03/16 02:33:50;;;;;;;2.92;1.40;;;36.70;53.10;;;;;;5024644;28;20072;-65
2023/03/16 02:36:19;;;;;;;4.90;1.60;;;36.70;54.60;;;;;;5027706;28;21027;-68
2023/03/16 02:38:46;;;;;;;2.80;1.33;;;36.70;55.40;;;;;;5026027;28;20035;-67
2023/03/16 02:41:19;;;;;;;2.63;1.48;;;36.70;53.90;;;;;;5028105;28;20026;-67
2023/03/16 02:43:51;;;;;;;;;;;36.70;54.40;;;;;;5040277;28;20025;-67
2023/03/16 02:46:21;;;;;;;3.05;1.30;;;36.70;52.80;;;;;;5031296;28;19924;-67
2023/03/16 02:49:08;;;;;;;2.47;1.10;;;37.00;53.60;;;;;;5026408;28;20033;-66
2023/03/16 02:51:36;;;;;;;7.22;1.55;;;36.90;53.30;;;;;;5025265;28;20040;-70
2023/03/16 02:54:03;;;;;;;7.97;1.85;;;37.10;52.90;;;;;;5028206;28;20029;-65
2023/03/16 02:56:31;;;;;;;10.10;2.47;;;37.10;53.50;;;;;;5030168;28;20025;-66
2023/03/16 02:58:58;;;;;;;1.65;0.80;;;37.10;52.80;;;;;;5024999;28;20021;-66
2023/03/16 03:01:26;;;;;;;3.70;1.17;;;37.20;49.50;;;;;;5030915;28;20021;-66
2023/03/16 03:03:53;;;;;;;7.68;0.88;;;37.30;49.10;;;;;;5024687;28;20041;-66
2023/03/16 03:06:21;;;;;;;2.70;1.20;;;37.30;47.90;;;;;;5027989;28;20045;-67
2023/03/16 03:08:48;;;;;;;3.28;1.25;;;37.20;47.40;;;;;;5028401;28;20076;-66
2023/03/16 03:11:17;;;;;;;2.85;0.80;;;37.20;50.40;;;;;;5029702;28;20041;-66
2023/03/16 03:13:47;;;;;;;3.78;0.90;;;37.30;47.00;;;;;;5030613;28;20030;-66
2023/03/16 03:16:15;;;;;;;1.45;0.80;;;37.40;46.70;;;;;;5031881;28;20026;-66
2023/03/16 03:18:42;;;;;;;1.83;0.77;;;37.30;45.80;;;;;;5040491;28;20034;-66
2023/03/16 03:21:10;;;;;;;3.38;0.80;;;37.40;45.60;;;;;;5033834;28;20017;-66
2023/03/16 03:23:37;;;;;;;3.78;1.08;;;37.50;44.80;;;;;;5033623;28;20030;-66
2023/03/16 03:26:05;;;;;;;4.03;0.90;;;37.50;43.80;;;;;;5030666;28;20033;-62
2023/03/16 03:28:33;;;;;;;1.95;0.77;;;37.50;43.70;;;;;;5028159;28;20075;-62
2023/03/16 03:31:00;;;;;;;2.50;0.88;;;37.50;45.10;;;;;;5043019;28;20029;-62
2023/03/16 03:33:28;;;;;;;3.08;0.70;;;37.40;44.60;;;;;;5029404;28;20054;-62
2023/03/16 03:36:00;;;;;;;6.15;0.90;;;37.40;43.20;;;;;;5027553;28;20040;-61
2023/03/16 03:38:28;;;;;;;3.13;0.90;;;37.50;43.30;;;;;;5036164;28;20076;-62
2023/03/16 03:40:59;;;;;;;3.13;0.80;;;37.40;42.30;;;;;;5028264;28;20121;-62
2023/03/16 03:43:26;;;;;;;2.92;0.82;;;37.30;43.10;;;;;;5034927;28;20078;-63
2023/03/16 03:45:57;;;;;;;1.70;0.55;;;37.40;43.80;;;;;;5037861;28;20786;-61
2023/03/16 03:48:25;;;;;;;2.20;0.60;;;37.30;40.80;;;;;;5025587;28;20026;-62
2023/03/16 03:50:53;;;;;;;4.20;0.70;;;37.40;40.70;;;;;;5020874;28;20021;-61
2023/03/16 03:53:21;;;;;;;8.50;1.00;;;37.40;39.10;;;;;;5027267;28;20026;-62
2023/03/16 03:55:48;;;;;;;11.43;1.25;;;37.30;40.20;;;;;;5018249;28;20607;-61
2023/03/16 03:58:16;;;;;;;9.27;0.80;;;37.10;38.50;;;;;;5022374;28;20029;-61
2023/03/16 04:00:43;;;;;;;4.82;0.82;;;37.00;39.70;;;;;;5024694;28;20030;-61
2023/03/16 04:03:11;;;;;;;13.43;1.45;;;37.00;40.00;;;;;;5020903;28;20052;-61
2023/03/16 04:05:38;;;;;;;6.03;1.00;;;36.90;39.40;;;;;;5020826;28;20467;-63
2023/03/16 04:08:06;;;;;;;1.98;0.80;;;36.90;39.90;;;;;;5014604;28;20057;-61
2023/03/16 04:10:33;;;;;;;3.92;0.45;;;37.10;41.20;;;;;;5025453;28;20071;-60
2023/03/16 04:13:01;;;;;;;3.72;0.70;;;37.20;40.90;;;;;;5029460;28;20628;-60
2023/03/16 04:15:31;;;;;;;4.50;1.45;;;37.20;39.00;;;;;;5024802;28;20111;-59
2023/03/16 04:18:00;;;;;;;3.55;1.10;;;37.10;39.20;;;;;;5033315;28;20029;-59
2023/03/16 04:20:28;;;;;;;4.10;0.60;;;37.10;37.90;;;;;;5034166;28;20042;-59
2023/03/16 04:22:57;;;;;;;6.13;0.88;;;37.00;38.00;;;;;;5028955;28;20021;-60
2023/03/16 04:25:26;;;;;;;9.27;0.70;;;37.00;38.90;;;;;;5028400;28;20026;-60
2023/03/16 04:27:54;;;;;;;6.72;0.80;;;37.10;38.30;;;;;;5040349;28;20593;-60
2023/03/16 04:30:24;;;;;;;5.03;2.00;;;37.00;38.30;;;;;;5029139;28;20034;-59
2023/03/16 04:32:52;;;;;;;5.85;0.80;;;37.10;38.80;;;;;;5030261;28;20494;-60
2023/03/16 04:35:20;;;;;;;6.20;1.00;;;36.90;38.00;;;;;;5031551;28;20032;-60
2023/03/16 04:37:48;;;;;;;6.80;1.23;;;36.90;39.20;;;;;;5041347;28;20078;-61
2023/03/16 04:40:16;;;;;;;4.03;0.80;;;36.90;38.30;;;;;;5035966;28;20017;-60
2023/03/16 04:42:47;;;;;;;5.28;0.90;;;36.90;39.50;;;;;;5038223;28;20029;-60
2023/03/16 04:45:19;;;;;;;3.42;1.42;;;37.00;37.90;;;;;;5029030;28;20037;-59
2023/03/16 04:47:48;;;;;;;1.60;0.60;;;36.90;39.70;;;;;;5030081;28;20467;-60
2023/03/16 04:50:16;;;;;;;1.13;0.50;;;36.90;39.40;;;;;;5030630;28;20033;-61
2023/03/16 04:52:43;;;;;;;8.15;0.90;;;37.00;39.20;;;;;;5028933;28;20017;-59
2023/03/16 04:55:10;;;;;;;3.83;0.82;;;37.00;38.70;;;;;;5035456;28;20103;-60
2023/03/16 04:57:38;;;;;;;2.10;0.50;;;36.90;38.30;;;;;;5027000;28;20037;-60
2023/03/16 05:00:10;;;;;;;2.50;0.47;;;36.80;38.80;;;;;;5022718;28;20034;-60
2023/03/16 05:02:38;;;;;;;3.95;0.60;;;36.80;39.80;;;;;;5034392;28;20025;-61
2023/03/16 05:05:06;;;;;;;2.78;0.93;;;36.70;39.10;;;;;;5036707;28;20428;-60
2023/03/16 05:07:33;;;;;;;2.95;0.95;;;36.60;39.00;;;;;;5025682;28;20025;-61
2023/03/16 05:10:00;;;;;;;2.90;0.77;;;36.50;39.40;;;;;;5028871;28;20489;-60
2023/03/16 05:12:28;;;;;;;4.28;0.80;;;36.50;39.00;;;;;;5043717;28;20112;-61
2023/03/16 05:14:56;;;;;;;1.48;0.80;;;36.50;39.80;;;;;;5036278;28;20036;-60
2023/03/16 05:17:23;;;;;;;2.72;0.50;;;36.50;39.80;;;;;;5028495;28;20033;-60
2023/03/16 05:19:51;;;;;;;3.85;0.80;;;36.60;39.90;;;;;;5029015;28;20022;-60
2023/03/16 05:22:18;;;;;;;6.03;1.13;;;36.50;40.10;;;;;;5031705;28;20473;-61
2023/03/16 05:24:46;;;;;;;6.78;1.20;;;36.50;38.70;;;;;;5035404;28;20486;-60
2023/03/16 05:27:13;;;;;;;7.57;0.88;;;36.40;38.80;;;;;;5036563;28;20362;-61
2023/03/16 05:29:45;;;;;;;6.38;1.00;;;36.20;39.80;;;;;;5032273;28;20490;-62
2023/03/16 05:32:13;;;;;;;1.42;0.50;;;36.20;40.20;;;;;;5020831;28;20164;-62
2023/03/16 05:34:42;;;;;;;2.70;0.98;;;36.20;39.20;;;;;;5030279;28;20033;-60
2023/03/16 05:37:10;;;;;;;3.92;1.15;;;36.20;39.70;;;;;;5029947;28;20026;-60
2023/03/16 05:39:37;;;;;;;7.53;0.80;;;36.20;40.00;;;;;;5028524;28;20028;-61
2023/03/16 05:42:05;;;;;;;10.32;0.90;;;36.10;39.90;;;;;;5021152;28;20529;-60
2023/03/16 05:44:32;;;;;;;1.45;0.50;;;36.10;40.30;;;;;;5031253;28;20042;-60
2023/03/16 05:47:00;;;;;;;5.47;0.77;;;36.00;40.20;;;;;;5029527;28;20018;-60
2023/03/16 05:49:27;;;;;;;10.15;1.38;;;36.10;38.90;;;;;;5023624;28;20030;-61
2023/03/16 05:51:55;;;;;;;5.85;0.60;;;36.00;39.80;;;;;;5040485;28;20366;-61
2023/03/16 05:54:23;;;;;;;3.78;0.82;;;36.00;39.40;;;;;;5027855;28;20068;-62
2023/03/16 05:56:50;;;;;;;5.25;0.60;;;35.90;39.30;;;;;;5028887;28;20028;-62
2023/03/16 05:59:17;;;;;;;3.50;0.80;;;35.90;39.60;;;;;;5033357;28;20025;-61
2023/03/16 06:01:45;;;;;;;1.98;0.73;;;35.90;40.10;;;;;;5033939;28;20021;-60
2023/03/16 06:04:13;;;;;;;2.60;0.60;;;35.90;40.20;;;;;;5023804;28;20025;-61
2023/03/16 06:06:40;;;;;;;8.10;1.30;;;35.80;39.80;;;;;;5021448;28;20094;-60
2023/03/16 06:09:08;;;;;;;10.05;0.77;;;35.70;39.30;;;;;;5034510;28;20048;-61
2023/03/16 06:11:35;;;;;;;3.78;0.75;;;35.60;39.20;;;;;;5023693;28;20025;-61
2023/03/16 06:14:04;;;;;;;4.40;0.93;;;35.60;39.90;;;;;;5024622;28;20372;-60
2023/03/16 06:16:31;;;;;;;1.30;0.65;;;35.60;40.30;;;;;;5027172;28;20021;-60
2023/03/16 06:18:59;;;;;;;3.25;0.60;;;35.60;40.50;;;;;;5022849;28;20035;-60
2023/03/16 06:21:27;;;;;;;2.08;0.77;;;35.50;40.00;;;;;;5023653;28;20501;-61
2023/03/16 06:23:54;;;;;;;4.35;1.02;;;35.50;39.30;;;;;;5021727;28;20033;-61
2023/03/16 06:26:22;;;;;;;7.13;1.00;;;35.50;40.20;;;;;;5031609;28;20042;-65
2023/03/16 06:28:50;;;;;;;3.50;0.95;;;35.40;40.00;;;;;;5032286;28;20061;-60
2023/03/16 06:31:17;;;;;;;4.20;0.85;;;35.30;40.20;;;;;;5035394;28;20021;-64
2023/03/16 06:33:44;;;;;;;1.65;0.50;;;35.30;40.00;;;;;;5030047;28;20021;-60
2023/03/16 06:36:12;;;;;;;1.83;0.73;;;35.30;40.70;;;;;;5042581;28;20112;-60
2023/03/16 06:38:39;;;;;;;6.53;0.73;;;35.30;39.90;;;;;;5031280;28;20041;-61
2023/03/16 06:41:07;;;;;;;17.00;1.45;;;35.20;39.80;;;;;;5044805;28;20078;-61
2023/03/16 06:43:34;;;;;;;1.60;0.73;;;35.20;39.60;;;;;;5041965;28;20037;-60
2023/03/16 06:46:02;;;;;;;2.50;1.00;;;35.10;40.00;;;;;;5031023;28;20513;-61
2023/03/16 06:48:30;;;;;;;1.67;0.55;;;35.00;40.00;;;;;;5045592;28;20040;-60
2023/03/16 06:50:57;;;;;;;2.80;0.57;;;34.90;40.10;;;;;;5028740;28;20126;-60
2023/03/16 06:53:25;;;;;;;2.08;0.80;;;34.90;40.50;;;;;;5041637;28;20029;-63
2023/03/16 06:55:53;;;;;;;0.73;0.50;;;34.90;40.60;;;;;;5030969;28;20037;-61
2023/03/16 06:58:20;;;;;;;7.45;0.60;;;34.90;39.80;;;;;;5040432;28;20036;-60
2023/03/16 07:00:47;;;;;;;2.45;0.60;;;34.80;39.40;;;;;;5031247;28;20103;-60
2023/03/16 07:03:15;;;;;;;4.60;0.52;;;34.80;39.20;;;;;;5030329;28;20017;-60
2023/03/16 07:05:42;;;;;;;1.98;0.50;;;34.70;40.00;;;;;;5037680;28;20185;-61
2023/03/16 07:08:10;;;;;;;2.60;0.80;;;34.60;39.50;;;;;;5029380;28;20018;-60
2023/03/16 07:10:38;;;;;;;2.75;0.68;;;34.60;39.20;;;;;;5031768;28;20524;-60
2023/03/16 07:13:05;;;;;;;3.00;0.55;;;34.50;40.00;;;;;;5043099;28;20025;-61
2023/03/16 07:15:33;;;;;;;3.72;0.63;;;34.40;39.00;;;;;;5030590;28;20045;-62
2023/03/16 07:18:00;;;;;;;4.28;0.70;;;34.30;39.30;;;;;;5040854;28;20029;-59
2023/03/16 07:20:30;;;;;;;1.50;0.57;;;34.20;39.90;;;;;;5032625;28;20092;-59
2023/03/16 07:22:57;;;;;;;7.53;0.77;;;34.10;39.40;;;;;;5021695;28;20458;-59
2023/03/16 07:25:25;;;;;;;12.32;0.63;;;34.10;39.30;;;;;;5031389;28;20421;-60
2023/03/16 07:27:52;;;;;;;9.98;1.33;;;33.90;39.60;;;;;;5031008;28;20040;-62
2023/03/16 07:30:20;;;;;;;2.22;0.50;;;33.90;40.10;;;;;;5026875;28;20032;-59
2023/03/16 07:32:47;;;;;;;1.98;0.60;;;33.70;39.60;;;;;;5031816;28;20029;-59
2023/03/16 07:35:16;;;;;;;1.83;0.55;;;33.60;40.50;;;;;;5035808;28;20072;-59
2023/03/16 07:37:43;;;;;;;3.25;0.50;;;33.40;40.10;;;;;;5026962;28;20395;-58
2023/03/16 07:40:11;;;;;;;5.53;0.60;;;33.20;41.30;;;;;;5026906;28;20498;-59
2023/03/16 07:42:39;;;;;;;1.40;0.50;;;33.10;40.60;;;;;;5030833;28;20025;-60
2023/03/16 07:45:08;;;;;;;2.22;0.43;;;32.80;41.30;;;;;;5031672;28;20059;-60
2023/03/16 07:47:35;;;;;;;1.75;0.43;;;32.60;41.80;;;;;;5033520;28;20032;-61
2023/03/16 07:50:03;;;;;;;1.73;0.68;;;32.40;41.50;;;;;;5034842;28;20123;-60
2023/03/16 07:52:30;;;;;;;2.13;0.55;;;32.20;42.00;;;;;;5031505;28;20022;-59
2023/03/16 07:54:58;;;;;;;3.30;0.73;;;32.10;42.40;;;;;;5031652;28;20029;-59
2023/03/16 07:57:25;;;;;;;1.25;0.60;;;32.10;41.70;;;;;;5038846;28;20025;-60
2023/03/16 07:59:52;;;;;;;4.63;0.75;;;31.90;42.30;;;;;;5040658;28;20033;-60
2023/03/16 08:02:21;;;;;;;2.75;0.60;;;31.80;42.60;;;;;;5027991;28;20033;-60
2023/03/16 08:04:48;;;;;;;2.70;0.80;;;31.60;42.60;;;;;;5025056;28;20045;-60
2023/03/16 08:07:16;;;;;;;6.85;1.00;;;31.40;43.00;;;;;;5028892;28;20034;-60
2023/03/16 08:09:44;;;;;;;4.43;0.95;;;31.20;43.40;;;;;;5031844;28;20040;-60
2023/03/16 08:12:11;;;;;;;2.17;0.50;;;31.10;43.50;;;;;;5030743;28;20926;-60
2023/03/16 08:14:39;;;;;;;5.68;0.90;;;30.90;43.60;;;;;;5033793;28;20502;-59
2023/03/16 08:17:06;;;;;;;2.78;0.80;;;30.80;44.10;;;;;;5024672;28;20072;-61
2023/03/16 08:19:34;;;;;;;2.30;0.88;;;30.70;44.20;;;;;;5027454;28;20109;-62
2023/03/16 08:22:02;;;;;;;6.63;0.77;;;30.50;43.80;;;;;;5027963;28;20026;-60
2023/03/16 08:24:30;;;;;;;3.70;0.88;;;30.50;43.60;;;;;;5028403;28;20021;-59
2023/03/16 08:26:58;;;;;;;2.10;0.47;;;30.40;44.00;;;;;;5025233;28;20094;-60
2023/03/16 08:29:27;;;;;;;2.90;1.10;;;30.50;43.60;;;;;;5021202;28;20131;-58
2023/03/16 08:31:57;;;;;;;4.00;0.57;;;30.50;43.20;;;;;;5035450;28;20403;-59
2023/03/16 08:34:27;;;;;;;7.43;0.77;;;30.40;43.80;;;;;;5028117;28;20383;-59
2023/03/16 08:36:55;;;;;;;3.58;0.60;;;30.30;43.60;;;;;;5028023;28;20052;-58
2023/03/16 08:39:22;;;;;;;1.48;0.60;;;30.20;44.00;;;;;;5024676;28;20029;-58
2023/03/16 08:41:49;;;;;;;2.42;0.43;;;30.00;43.80;;;;;;5028623;28;20414;-58
2023/03/16 08:44:17;;;;;;;4.60;0.57;;;29.90;44.10;;;;;;5022426;28;20446;-59
2023/03/16 08:46:45;;;;;;;2.33;0.45;;;29.80;45.50;;;;;;5028939;28;20505;-58
2023/03/16 08:49:13;;;;;;;1.77;0.50;;;29.80;44.50;;;;;;5026518;28;20037;-58
2023/03/16 08:51:41;;;;;;;7.22;2.30;;;29.60;44.50;;;;;;5021739;28;20049;-61
2023/03/16 08:54:08;;;;;;;4.00;0.70;;;29.50;44.80;;;;;;5027775;28;20021;-59
2023/03/16 08:56:36;;;;;;;3.85;1.05;;;29.30;45.10;;;;;;5031635;28;20044;-58
2023/03/16 08:59:04;;;;;;;4.05;0.60;;;29.20;45.50;;;;;;5030183;28;20555;-60
2023/03/16 09:01:32;;;;;;;2.80;0.68;;;29.00;45.80;;;;;;5020794;28;20034;-59
2023/03/16 09:04:00;;;;;;;4.95;0.90;;;29.10;45.60;;;;;;5023519;28;20025;-59
2023/03/16 09:06:27;;;;;;;1.70;1.10;;;29.10;45.90;;;;;;5024065;28;20049;-59
2023/03/16 09:08:55;;;;;;;2.10;0.70;;;29.10;45.60;;;;;;5026020;28;20025;-59
2023/03/16 09:11:24;;;;;;;2.97;0.77;;;29.00;45.40;;;;;;5023033;28;20037;-59
2023/03/16 09:13:52;;;;;;;6.10;1.20;;;28.90;45.50;;;;;;5022173;28;20525;-59
2023/03/16 09:16:24;;;;;;;2.30;0.68;;;28.80;46.30;;;;;;5026952;28;20033;-59
2023/03/16 09:18:52;;;;;;;1.63;0.63;;;28.80;46.00;;;;;;5029531;28;20036;-60
2023/03/16 09:21:20;;;;;;;1.30;0.52;;;28.80;46.00;;;;;;5028413;28;20032;-60
2023/03/16 09:23:48;;;;;;;3.88;0.73;;;28.70;46.10;;;;;;5023760;28;20041;-60
2023/03/16 09:26:15;;;;;;;0.88;0.45;;;28.60;46.20;;;;;;5021375;28;20466;-60
2023/03/16 09:28:43;;;;;;;2.78;0.60;;;28.50;46.30;;;;;;5019947;28;20648;-60
2023/03/16 09:31:17;;;;;;;2.92;0.70;;;28.40;46.40;;;;;;5022065;28;20033;-63
2023/03/16 09:33:45;;;;;;;4.68;0.57;;;28.40;46.70;;;;;;5029457;28;20079;-62
2023/03/16 09:36:14;;;;;;;2.08;0.40;;;28.40;46.90;;;;;;5029997;28;20052;-61
2023/03/16 09:38:43;;;;;;;5.43;0.60;;;28.20;46.70;;;;;;5026357;28;20091;-62
2023/03/16 09:41:34;;;;;;;3.75;0.55;;;28.20;46.30;;;;;;5016523;28;20562;-62
2023/03/16 09:44:24;;;;;;;1.40;1.05;;;28.20;46.20;;;;;;5020072;28;20108;-61
2023/03/16 09:46:53;;;;;;;4.05;0.80;;;28.10;46.50;;;;;;5022390;28;20041;-60
2023/03/16 09:49:24;;;;;;;1.95;0.50;;;28.00;46.70;;;;;;5021616;28;20056;-62
2023/03/16 09:52:18;;;;;;;2.30;0.68;;;27.80;47.20;;;;;;5021008;28;20025;-63
2023/03/16 09:55:02;;;;;;;2.20;0.75;;;27.60;47.50;;;;;;5020635;28;20046;-60
2023/03/16 09:57:31;;;;;;;1.75;0.60;;;27.50;48.20;;;;;;5030615;28;20044;-62
2023/03/16 10:00:19;;;;;;;3.83;0.70;;;27.30;48.20;;;;;;5021005;28;20029;-62
2023/03/16 10:03:01;;;;;;;7.07;0.75;;;27.20;48.30;;;;;;5018370;28;20115;-61
2023/03/16 10:05:29;;;;;;;1.92;0.60;;;27.10;48.80;;;;;;5017294;28;20050;-60
2023/03/16 10:08:30;;;;;;;2.38;0.85;;;27.00;49.10;;;;;;5018071;28;20021;-60
2023/03/16 10:11:22;;;;;;;1.77;1.20;;;26.80;49.30;;;;;;5005706;28;20048;-60
2023/03/16 10:14:18;;;;;;;5.07;1.10;;;26.60;50.10;;;;;;5023902;28;20442;-59
2023/03/16 10:17:09;;;;;;;1.70;0.90;;;26.50;50.00;;;;;;5030985;28;20033;-61
2023/03/16 10:20:00;;;;;;;1.58;0.80;;;26.50;50.10;;;;;;5022601;28;20033;-59
2023/03/16 10:22:33;;;;;;;3.22;0.90;;;26.40;50.10;;;;;;5022393;28;20084;-60
2023/03/16 10:25:22;;;;;;;3.00;0.63;;;26.40;50.30;;;;;;5018926;28;20493;-60
2023/03/16 10:27:49;;;;;;;1.80;0.82;;;26.30;50.30;;;;;;5022148;28;20044;-61
2023/03/16 10:30:31;;;;;;;6.57;0.90;;;26.20;50.40;;;;;;5025763;28;20497;-60
2023/03/16 10:33:17;;;;;;;3.58;0.90;;;26.20;50.30;;;;;;5018881;28;20025;-62
2023/03/16 10:35:57;;;;;;;2.25;0.80;;;26.00;50.60;;;;;;5021615;28;20026;-60
2023/03/16 10:38:48;;;;;;;1.27;0.80;;;26.00;50.70;;;;;;5018548;28;20059;-61
2023/03/16 10:41:21;;;;;;;3.25;0.93;;;25.90;50.90;;;;;;5022734;28;20095;-61
2023/03/16 10:44:13;;;;;;;5.55;0.82;;;25.80;51.90;;;;;;5026937;28;20077;-61
2023/03/16 10:47:08;;;;;;;2.03;0.57;;;25.70;51.50;;;;;;5014881;28;20442;-61
2023/03/16 10:49:47;;;;;;;5.13;0.88;;;25.60;51.80;;;;;;5013928;28;20130;-61
2023/03/16 10:52:35;;;;;;;1.55;0.70;;;25.60;52.40;;;;;;5020188;28;20138;-61
2023/03/16 10:55:25;;;;;;;3.95;0.80;;;25.50;51.80;;;;;;5002902;28;20041;-61
2023/03/16 10:57:55;;;;;;;2.75;0.80;;;25.50;52.00;;;;;;5013656;28;20153;-60
2023/03/16 11:00:27;;;;;;;1.50;0.60;;;25.40;52.40;;;;;;5012152;28;20034;-61
2023/03/16 11:02:58;;;;;;;1.88;0.73;;;25.40;52.50;;;;;;5022355;28;20036;-60
2023/03/16 11:05:33;;;;;;;1.20;0.70;;;25.30;52.50;;;;;;5017315;28;20132;-58
2023/03/16 11:08:11;;;;;;;2.00;0.70;;;25.20;52.80;;;;;;5018023;28;20022;-61
2023/03/16 11:10:44;;;;;;;2.78;0.60;;;25.00;53.20;;;;;;5013156;28;20037;-59
2023/03/16 11:13:21;;;;;;;3.72;0.82;;;25.00;53.60;;;;;;5016100;28;20043;-59
2023/03/16 11:15:57;;;;;;;4.97;0.90;;;24.90;54.00;;;;;;5014312;28;20395;-59
2023/03/16 11:18:48;;;;;;;2.17;1.00;;;24.80;53.50;;;;;;5023316;28;20038;-59
2023/03/16 11:21:37;;;;;;;8.55;0.75;;;24.70;54.30;;;;;;5020959;28;20026;-59
2023/03/16 11:24:14;;;;;;;2.70;0.50;;;24.70;54.10;;;;;;5028708;28;20033;-59
2023/03/16 11:26:44;;;;;;;2.28;0.50;;;24.60;53.80;;;;;;5025653;28;20123;-59
2023/03/16 11:29:24;;;;;;;3.53;0.85;;;24.50;54.40;;;;;;5024031;28;20022;-59
2023/03/16 11:32:00;;;;;;;4.18;1.00;;;24.40;55.00;;;;;;5028823;28;20055;-61
2023/03/16 11:34:30;;;;;;;1.92;0.68;;;24.30;54.70;;;;;;5024479;28;20033;-59
2023/03/16 11:37:11;;;;;;;1.38;0.70;;;24.20;54.50;;;;;;5023763;28;20021;-59
2023/03/16 11:39:55;;;;;;;3.97;0.90;;;24.20;55.00;;;;;;5030034;28;20025;-60
2023/03/16 11:42:39;;;;;;;2.08;0.50;;;24.20;54.80;;;;;;5018522;28;20391;-60
2023/03/16 11:45:26;;;;;;;3.40;0.90;;;24.10;54.70;;;;;;5025751;28;20040;-60
2023/03/16 11:48:20;;;;;;;3.45;0.80;;;24.00;54.40;;;;;;5028776;28;20026;-60
2023/03/16 11:50:53;;;;;;;8.55;1.30;;;24.00;54.80;;;;;;5031454;28;20060;-59
2023/03/16 11:53:41;;;;;;;8.00;0.88;;;23.90;54.60;;;;;;5037301;28;20030;-59
2023/03/16 11:56:22;;;;;;;2.30;0.75;;;23.90;55.00;;;;;;5026409;28;20025;-59
2023/03/16 11:58:58;;;;;;;4.85;1.35;;;23.80;54.80;;;;;;5031200;28;20069;-59
2023/03/16 12:01:38;;;;;;;2.47;0.65;;;23.80;54.80;;;;;;5027341;28;20029;-59
2023/03/16 12:04:19;;;;;;;3.92;0.52;;;23.80;54.90;;;;;;5032883;28;20018;-59
2023/03/16 12:07:20;;;;;;;1.77;0.60;;;23.80;54.80;;;;;;5031458;28;20038;-59
2023/03/16 12:10:05;;;;;;;2.78;0.60;;;23.80;54.10;;;;;;5038286;28;20501;-60
2023/03/16 12:12:53;;;;;;;0.98;0.50;;;23.80;54.20;;;;;;5022181;28;20306;-58
2023/03/16 12:15:44;;;;;;;0.77;0.32;;;23.90;53.90;;;;;;5030855;28;20557;-59
2023/03/16 12:18:16;;;;;;;1.58;0.55;;;23.80;53.60;;;;;;5031067;28;20025;-59
2023/03/16 12:20:57;;;;;;;3.42;1.00;;;23.80;53.10;;;;;;5031280;28;20109;-59
2023/03/16 12:23:42;;;;;;;2.80;0.50;;;23.70;53.50;;;;;;5042034;28;20019;-59
2023/03/16 12:26:11;;;;;;;2.25;0.50;;;23.60;54.00;;;;;;5032843;28;20436;-58
2023/03/16 12:28:41;;;;;;;5.38;0.75;;;23.50;53.80;;;;;;5038233;28;20022;-59
2023/03/16 12:31:12;;;;;;;2.85;0.60;;;23.40;53.80;;;;;;5032684;28;20566;-58
2023/03/16 12:33:56;;;;;;;3.20;0.70;;;23.30;54.00;;;;;;5031471;28;20113;-60
2023/03/16 12:36:54;;;;;;;1.90;0.65;;;23.20;53.80;;;;;;5026917;28;20697;-58
2023/03/16 12:39:40;;;;;;;1.75;0.50;;;23.10;54.00;;;;;;5023852;28;20052;-62
2023/03/16 12:42:30;;;;;;;0.82;0.38;;;22.90;54.10;;;;;;5027497;28;20021;-59
2023/03/16 12:45:11;;;;;;;1.80;0.68;;;22.80;54.20;;;;;;5023413;28;20051;-60
2023/03/16 12:47:54;;;;;;;2.65;0.40;;;22.70;54.30;;;;;;5033944;28;20035;-59
2023/03/16 12:50:23;;;;;;;0.93;0.45;;;22.50;54.70;;;;;;5021260;28;20018;-61
2023/03/16 12:52:53;;;;;;;0.80;0.38;;;22.40;54.70;;;;;;5027511;28;20064;-59
2023/03/16 12:55:44;;;;;;;1.02;0.40;;;22.20;55.30;;;;;;5028215;28;20038;-58
2023/03/16 12:58:11;;;;;;;1.42;0.32;;;22.10;55.40;;;;;;5029590;28;20613;-59
2023/03/16 13:00:41;;;;;;;1.65;0.30;;;22.00;55.50;;;;;;5025064;28;20079;-58
2023/03/16 13:03:28;;;;;;;0.50;0.32;;;21.80;55.60;;;;;;5039674;28;20021;-59
2023/03/16 13:06:00;;;;;;;1.65;0.50;;;21.80;56.00;;;;;;5044218;28;20136;-59
2023/03/16 13:08:27;;;;;;;7.90;0.70;;;21.70;55.90;;;;;;5028056;28;20057;-59
2023/03/16 13:11:03;;;;;;;3.40;0.40;;;21.60;56.00;;;;;;5031546;28;20013;-59